sensor_id;sensor_type;location;lat;lon;timestamp;temperature;humidity
80230;DHT22;69540;42.136;24.742;2023-05-17T00:00:49;23.50;43.10
80230;DHT22;69540;42.136;24.742;2023-05-17T00:03:15;23.50;43.10
80230;DHT22;69540;42.136;24.742;2023-05-17T00:05:41;23.50;43.10
80230;DHT22;69540;42.136;24.742;2023-05-17T00:08:06;23.50;43.10
80230;DHT22;69540;42.136;24.742;2023-05-17T00:10:32;23.50;43.10
80230;DHT22;69540;42.136;24.742;2023-05-17T00:12:58;23.50;43.10
80230;DHT22;69540;42.136;24.742;2023-05-17T00:15:23;23.50;43.10
80230;DHT22;69540;42.136;24.742;2023-05-17T00:17:49;23.50;43.00
80230;DHT22;69540;42.136;24.742;2023-05-17T00:20:15;23.50;43.10
80230;DHT22;69540;42.136;24.742;2023-05-17T00:22:40;23.50;43.00
80230;DHT22;69540;42.136;24.742;2023-05-17T00:25:07;23.50;43.00
80230;DHT22;69540;42.136;24.742;2023-05-17T00:27:33;23.50;43.00
80230;DHT22;69540;42.136;24.742;2023-05-17T00:29:59;23.50;43.00
80230;DHT22;69540;42.136;24.742;2023-05-17T00:32:24;23.50;43.00
80230;DHT22;69540;42.136;24.742;2023-05-17T00:34:50;23.50;43.00
80230;DHT22;69540;42.136;24.742;2023-05-17T00:37:15;23.50;43.00
80230;DHT22;69540;42.136;24.742;2023-05-17T00:39:41;23.50;43.00
80230;DHT22;69540;42.136;24.742;2023-05-17T00:42:07;23.50;43.00
80230;DHT22;69540;42.136;24.742;2023-05-17T00:44:32;23.50;43.00
80230;DHT22;69540;42.136;24.742;2023-05-17T00:46:58;23.50;42.90
80230;DHT22;69540;42.136;24.742;2023-05-17T00:49:27;23.50;42.90
80230;DHT22;69540;42.136;24.742;2023-05-17T00:51:53;23.40;42.90
80230;DHT22;69540;42.136;24.742;2023-05-17T00:54:20;23.50;42.90
80230;DHT22;69540;42.136;24.742;2023-05-17T00:56:45;23.50;42.90
80230;DHT22;69540;42.136;24.742;2023-05-17T00:59:12;23.50;42.90
80230;DHT22;69540;42.136;24.742;2023-05-17T01:01:41;23.40;42.90
80230;DHT22;69540;42.136;24.742;2023-05-17T01:04:08;23.50;42.90
80230;DHT22;69540;42.136;24.742;2023-05-17T01:06:35;23.50;42.90
80230;DHT22;69540;42.136;24.742;2023-05-17T01:09:01;23.50;42.90
80230;DHT22;69540;42.136;24.742;2023-05-17T01:11:38;23.40;42.80
80230;DHT22;69540;42.136;24.742;2023-05-17T01:14:40;23.50;42.90
80230;DHT22;69540;42.136;24.742;2023-05-17T01:17:03;23.50;42.90
80230;DHT22;69540;42.136;24.742;2023-05-17T01:19:50;23.50;42.90
80230;DHT22;69540;42.136;24.742;2023-05-17T01:27:29;23.40;42.80
80230;DHT22;69540;42.136;24.742;2023-05-17T01:29:56;23.40;42.80
80230;DHT22;69540;42.136;24.742;2023-05-17T01:32:24;23.40;42.80
80230;DHT22;69540;42.136;24.742;2023-05-17T01:34:50;23.40;42.80
80230;DHT22;69540;42.136;24.742;2023-05-17T01:37:16;23.50;42.80
80230;DHT22;69540;42.136;24.742;2023-05-17T01:39:41;23.50;42.80
80230;DHT22;69540;42.136;24.742;2023-05-17T01:42:25;23.40;42.80
80230;DHT22;69540;42.136;24.742;2023-05-17T01:47:56;23.40;42.80
80230;DHT22;69540;42.136;24.742;2023-05-17T01:50:28;23.40;42.70
80230;DHT22;69540;42.136;24.742;2023-05-17T01:53:02;23.40;42.80
80230;DHT22;69540;42.136;24.742;2023-05-17T01:55:49;23.40;43.80
80230;DHT22;69540;42.136;24.742;2023-05-17T01:58:17;23.40;42.70
80230;DHT22;69540;42.136;24.742;2023-05-17T02:00:46;23.40;42.70
80230;DHT22;69540;42.136;24.742;2023-05-17T02:03:17;23.40;42.70
80230;DHT22;69540;42.136;24.742;2023-05-17T02:05:43;23.40;42.70
80230;DHT22;69540;42.136;24.742;2023-05-17T02:08:09;23.40;42.70
80230;DHT22;69540;42.136;24.742;2023-05-17T02:10:35;23.40;42.70
80230;DHT22;69540;42.136;24.742;2023-05-17T02:13:00;23.40;42.70
80230;DHT22;69540;42.136;24.742;2023-05-17T02:15:26;23.40;42.70
80230;DHT22;69540;42.136;24.742;2023-05-17T02:17:52;23.40;42.60
80230;DHT22;69540;42.136;24.742;2023-05-17T02:20:18;23.40;42.60
80230;DHT22;69540;42.136;24.742;2023-05-17T02:22:43;23.40;42.60
80230;DHT22;69540;42.136;24.742;2023-05-17T02:25:09;23.40;43.70
80230;DHT22;69540;42.136;24.742;2023-05-17T02:27:35;23.40;43.70
80230;DHT22;69540;42.136;24.742;2023-05-17T02:30:01;23.40;42.60
80230;DHT22;69540;42.136;24.742;2023-05-17T02:32:28;23.40;42.60
80230;DHT22;69540;42.136;24.742;2023-05-17T02:34:54;23.40;42.60
80230;DHT22;69540;42.136;24.742;2023-05-17T02:37:19;23.40;42.60
80230;DHT22;69540;42.136;24.742;2023-05-17T02:39:45;23.40;42.50
80230;DHT22;69540;42.136;24.742;2023-05-17T02:42:11;23.40;42.60
80230;DHT22;69540;42.136;24.742;2023-05-17T02:44:37;23.40;42.50
80230;DHT22;69540;42.136;24.742;2023-05-17T02:47:03;23.40;42.50
80230;DHT22;69540;42.136;24.742;2023-05-17T02:49:28;23.40;42.50
80230;DHT22;69540;42.136;24.742;2023-05-17T02:51:54;23.40;42.50
80230;DHT22;69540;42.136;24.742;2023-05-17T02:54:20;23.40;42.50
80230;DHT22;69540;42.136;24.742;2023-05-17T02:56:46;23.40;42.50
80230;DHT22;69540;42.136;24.742;2023-05-17T02:59:11;23.40;42.50
80230;DHT22;69540;42.136;24.742;2023-05-17T03:01:37;23.40;42.50
80230;DHT22;69540;42.136;24.742;2023-05-17T03:04:03;23.40;42.50
80230;DHT22;69540;42.136;24.742;2023-05-17T03:06:29;23.40;42.50
80230;DHT22;69540;42.136;24.742;2023-05-17T03:08:55;23.40;42.50
80230;DHT22;69540;42.136;24.742;2023-05-17T03:11:21;23.40;42.40
80230;DHT22;69540;42.136;24.742;2023-05-17T03:13:46;23.40;42.40
80230;DHT22;69540;42.136;24.742;2023-05-17T03:16:18;23.40;42.50
80230;DHT22;69540;42.136;24.742;2023-05-17T03:18:44;23.40;42.40
80230;DHT22;69540;42.136;24.742;2023-05-17T03:21:09;23.40;42.50
80230;DHT22;69540;42.136;24.742;2023-05-17T03:23:35;23.40;42.40
80230;DHT22;69540;42.136;24.742;2023-05-17T03:26:00;23.40;42.40
80230;DHT22;69540;42.136;24.742;2023-05-17T03:28:26;23.40;42.40
80230;DHT22;69540;42.136;24.742;2023-05-17T03:30:52;23.40;42.40
80230;DHT22;69540;42.136;24.742;2023-05-17T03:33:18;23.40;42.40
80230;DHT22;69540;42.136;24.742;2023-05-17T03:35:44;23.40;42.40
80230;DHT22;69540;42.136;24.742;2023-05-17T03:38:12;23.40;42.40
80230;DHT22;69540;42.136;24.742;2023-05-17T03:40:39;23.40;42.30
80230;DHT22;69540;42.136;24.742;2023-05-17T03:43:05;23.40;42.30
80230;DHT22;69540;42.136;24.742;2023-05-17T03:45:31;23.40;42.40
80230;DHT22;69540;42.136;24.742;2023-05-17T03:47:57;23.40;42.50
80230;DHT22;69540;42.136;24.742;2023-05-17T03:50:23;23.40;42.30
80230;DHT22;69540;42.136;24.742;2023-05-17T03:52:48;23.30;42.20
80230;DHT22;69540;42.136;24.742;2023-05-17T03:55:14;23.40;42.10
80230;DHT22;69540;42.136;24.742;2023-05-17T03:57:39;23.40;42.10
80230;DHT22;69540;42.136;24.742;2023-05-17T04:00:05;23.30;42.10
80230;DHT22;69540;42.136;24.742;2023-05-17T04:02:35;23.30;42.10
80230;DHT22;69540;42.136;24.742;2023-05-17T04:05:00;23.30;42.10
80230;DHT22;69540;42.136;24.742;2023-05-17T04:07:26;23.30;42.10
80230;DHT22;69540;42.136;24.742;2023-05-17T04:09:52;23.30;42.10
80230;DHT22;69540;42.136;24.742;2023-05-17T04:12:18;23.30;42.10
80230;DHT22;69540;42.136;24.742;2023-05-17T04:14:43;23.30;42.20
80230;DHT22;69540;42.136;24.742;2023-05-17T04:17:09;23.20;42.20
80230;DHT22;69540;42.136;24.742;2023-05-17T04:19:35;23.20;42.20
80230;DHT22;69540;42.136;24.742;2023-05-17T04:22:00;23.20;42.40
80230;DHT22;69540;42.136;24.742;2023-05-17T04:24:26;23.20;42.40
80230;DHT22;69540;42.136;24.742;2023-05-17T04:26:51;23.20;42.40
80230;DHT22;69540;42.136;24.742;2023-05-17T04:29:17;23.20;42.50
80230;DHT22;69540;42.136;24.742;2023-05-17T04:31:43;23.20;42.60
80230;DHT22;69540;42.136;24.742;2023-05-17T04:34:08;23.20;42.70
80230;DHT22;69540;42.136;24.742;2023-05-17T04:36:34;23.20;42.80
80230;DHT22;69540;42.136;24.742;2023-05-17T04:38:59;23.20;42.70
80230;DHT22;69540;42.136;24.742;2023-05-17T04:41:27;23.10;42.80
80230;DHT22;69540;42.136;24.742;2023-05-17T04:43:53;23.10;42.80
80230;DHT22;69540;42.136;24.742;2023-05-17T04:46:18;23.10;42.80
80230;DHT22;69540;42.136;24.742;2023-05-17T04:48:44;23.10;42.90
80230;DHT22;69540;42.136;24.742;2023-05-17T04:51:11;23.10;43.00
80230;DHT22;69540;42.136;24.742;2023-05-17T04:53:37;23.10;43.10
80230;DHT22;69540;42.136;24.742;2023-05-17T04:56:02;23.10;43.40
80230;DHT22;69540;42.136;24.742;2023-05-17T04:58:28;23.00;43.60
80230;DHT22;69540;42.136;24.742;2023-05-17T05:00:54;23.00;43.80
80230;DHT22;69540;42.136;24.742;2023-05-17T05:03:21;23.00;44.10
80230;DHT22;69540;42.136;24.742;2023-05-17T05:05:47;23.00;44.40
80230;DHT22;69540;42.136;24.742;2023-05-17T05:08:12;23.00;44.60
80230;DHT22;69540;42.136;24.742;2023-05-17T05:10:38;23.00;44.80
80230;DHT22;69540;42.136;24.742;2023-05-17T05:13:04;23.00;44.80
80230;DHT22;69540;42.136;24.742;2023-05-17T05:15:31;22.90;45.30
80230;DHT22;69540;42.136;24.742;2023-05-17T05:17:57;22.90;47.30
80230;DHT22;69540;42.136;24.742;2023-05-17T05:20:22;22.90;47.70
80230;DHT22;69540;42.136;24.742;2023-05-17T05:22:48;22.90;47.60
80230;DHT22;69540;42.136;24.742;2023-05-17T05:25:13;22.90;47.70
80230;DHT22;69540;42.136;24.742;2023-05-17T05:27:39;23.00;47.40
80230;DHT22;69540;42.136;24.742;2023-05-17T05:30:05;23.00;46.80
80230;DHT22;69540;42.136;24.742;2023-05-17T05:32:31;23.00;46.40
80230;DHT22;69540;42.136;24.742;2023-05-17T05:34:57;23.00;46.10
80230;DHT22;69540;42.136;24.742;2023-05-17T05:37:22;23.00;46.00
80230;DHT22;69540;42.136;24.742;2023-05-17T05:39:48;23.00;46.00
80230;DHT22;69540;42.136;24.742;2023-05-17T05:42:14;23.10;46.00
80230;DHT22;69540;42.136;24.742;2023-05-17T05:44:39;23.10;46.00
80230;DHT22;69540;42.136;24.742;2023-05-17T05:47:05;23.10;46.00
80230;DHT22;69540;42.136;24.742;2023-05-17T05:49:31;23.10;45.90
80230;DHT22;69540;42.136;24.742;2023-05-17T05:51:57;23.10;45.90
80230;DHT22;69540;42.136;24.742;2023-05-17T05:54:22;23.10;46.00
80230;DHT22;69540;42.136;24.742;2023-05-17T05:56:48;23.20;46.00
80230;DHT22;69540;42.136;24.742;2023-05-17T05:59:15;23.10;46.00
80230;DHT22;69540;42.136;24.742;2023-05-17T06:01:41;23.20;46.10
80230;DHT22;69540;42.136;24.742;2023-05-17T06:04:07;23.20;45.90
80230;DHT22;69540;42.136;24.742;2023-05-17T06:06:32;23.20;45.80
80230;DHT22;69540;42.136;24.742;2023-05-17T06:08:58;23.20;45.80
80230;DHT22;69540;42.136;24.742;2023-05-17T06:11:24;23.20;45.80
80230;DHT22;69540;42.136;24.742;2023-05-17T06:13:50;23.20;45.90
80230;DHT22;69540;42.136;24.742;2023-05-17T06:16:16;23.30;45.90
80230;DHT22;69540;42.136;24.742;2023-05-17T06:18:42;23.20;45.70
80230;DHT22;69540;42.136;24.742;2023-05-17T06:21:07;23.30;45.80
80230;DHT22;69540;42.136;24.742;2023-05-17T06:23:33;23.30;45.60
80230;DHT22;69540;42.136;24.742;2023-05-17T06:25:58;23.30;45.50
80230;DHT22;69540;42.136;24.742;2023-05-17T06:28:25;23.30;45.60
80230;DHT22;69540;42.136;24.742;2023-05-17T06:30:51;23.30;45.60
80230;DHT22;69540;42.136;24.742;2023-05-17T06:33:16;23.40;45.60
80230;DHT22;69540;42.136;24.742;2023-05-17T06:35:42;23.40;45.60
80230;DHT22;69540;42.136;24.742;2023-05-17T06:38:07;23.40;45.70
80230;DHT22;69540;42.136;24.742;2023-05-17T06:40:33;23.40;45.60
80230;DHT22;69540;42.136;24.742;2023-05-17T06:42:59;23.40;45.70
80230;DHT22;69540;42.136;24.742;2023-05-17T06:45:26;23.40;45.90
80230;DHT22;69540;42.136;24.742;2023-05-17T06:47:52;23.40;45.80
80230;DHT22;69540;42.136;24.742;2023-05-17T06:50:18;23.40;45.80
80230;DHT22;69540;42.136;24.742;2023-05-17T06:52:44;23.40;45.80
80230;DHT22;69540;42.136;24.742;2023-05-17T06:55:09;23.40;45.80
80230;DHT22;69540;42.136;24.742;2023-05-17T06:57:35;23.40;45.80
80230;DHT22;69540;42.136;24.742;2023-05-17T07:00:01;23.40;45.80
80230;DHT22;69540;42.136;24.742;2023-05-17T07:02:26;23.50;46.40
80230;DHT22;69540;42.136;24.742;2023-05-17T07:04:55;23.40;45.80
80230;DHT22;69540;42.136;24.742;2023-05-17T07:07:21;23.50;46.00
80230;DHT22;69540;42.136;24.742;2023-05-17T07:09:46;23.40;45.90
80230;DHT22;69540;42.136;24.742;2023-05-17T07:12:12;23.50;46.00
80230;DHT22;69540;42.136;24.742;2023-05-17T07:14:37;23.50;46.00
80230;DHT22;69540;42.136;24.742;2023-05-17T07:17:03;23.50;46.10
80230;DHT22;69540;42.136;24.742;2023-05-17T07:19:29;23.50;46.10
80230;DHT22;69540;42.136;24.742;2023-05-17T07:21:54;23.50;46.00
80230;DHT22;69540;42.136;24.742;2023-05-17T07:24:20;23.50;46.10
80230;DHT22;69540;42.136;24.742;2023-05-17T07:26:46;23.50;46.10
80230;DHT22;69540;42.136;24.742;2023-05-17T07:29:12;23.50;46.20
80230;DHT22;69540;42.136;24.742;2023-05-17T07:31:37;23.50;46.30
80230;DHT22;69540;42.136;24.742;2023-05-17T07:34:03;23.50;46.30
80230;DHT22;69540;42.136;24.742;2023-05-17T07:36:29;23.60;46.30
80230;DHT22;69540;42.136;24.742;2023-05-17T07:38:58;23.50;46.30
80230;DHT22;69540;42.136;24.742;2023-05-17T07:41:24;23.60;46.40
80230;DHT22;69540;42.136;24.742;2023-05-17T07:43:50;23.60;46.40
80230;DHT22;69540;42.136;24.742;2023-05-17T07:46:16;23.60;46.30
80230;DHT22;69540;42.136;24.742;2023-05-17T07:48:42;23.60;46.30
80230;DHT22;69540;42.136;24.742;2023-05-17T07:51:08;23.60;46.50
80230;DHT22;69540;42.136;24.742;2023-05-17T07:53:33;23.60;46.60
80230;DHT22;69540;42.136;24.742;2023-05-17T07:55:59;23.60;46.70
80230;DHT22;69540;42.136;24.742;2023-05-17T07:58:25;23.60;46.70
80230;DHT22;69540;42.136;24.742;2023-05-17T08:00:50;23.60;46.70
80230;DHT22;69540;42.136;24.742;2023-05-17T08:03:16;23.60;46.60
80230;DHT22;69540;42.136;24.742;2023-05-17T08:05:41;23.60;46.50
80230;DHT22;69540;42.136;24.742;2023-05-17T08:08:07;23.60;46.40
80230;DHT22;69540;42.136;24.742;2023-05-17T08:10:33;23.70;47.60
80230;DHT22;69540;42.136;24.742;2023-05-17T08:13:00;23.70;46.50
80230;DHT22;69540;42.136;24.742;2023-05-17T08:15:26;23.60;46.50
80230;DHT22;69540;42.136;24.742;2023-05-17T08:17:52;23.70;46.60
80230;DHT22;69540;42.136;24.742;2023-05-17T08:20:17;23.70;46.50
80230;DHT22;69540;42.136;24.742;2023-05-17T08:22:43;23.70;46.50
80230;DHT22;69540;42.136;24.742;2023-05-17T08:25:09;23.70;46.50
80230;DHT22;69540;42.136;24.742;2023-05-17T08:27:34;23.70;46.70
80230;DHT22;69540;42.136;24.742;2023-05-17T08:30:00;23.70;46.60
80230;DHT22;69540;42.136;24.742;2023-05-17T08:32:26;23.70;46.60
80230;DHT22;69540;42.136;24.742;2023-05-17T08:34:52;23.70;46.60
80230;DHT22;69540;42.136;24.742;2023-05-17T08:37:18;23.70;46.70
80230;DHT22;69540;42.136;24.742;2023-05-17T08:39:44;23.70;46.70
80230;DHT22;69540;42.136;24.742;2023-05-17T08:42:10;23.70;46.60
80230;DHT22;69540;42.136;24.742;2023-05-17T08:44:36;23.70;46.60
80230;DHT22;69540;42.136;24.742;2023-05-17T08:47:03;23.70;46.60
80230;DHT22;69540;42.136;24.742;2023-05-17T08:49:32;23.70;46.70
80230;DHT22;69540;42.136;24.742;2023-05-17T08:51:59;23.70;46.70
80230;DHT22;69540;42.136;24.742;2023-05-17T08:54:26;23.80;46.70
80230;DHT22;69540;42.136;24.742;2023-05-17T08:56:59;23.80;46.70
80230;DHT22;69540;42.136;24.742;2023-05-17T08:59:27;23.80;46.50
80230;DHT22;69540;42.136;24.742;2023-05-17T09:01:58;23.80;46.50
80230;DHT22;69540;42.136;24.742;2023-05-17T09:04:25;23.70;46.50
80230;DHT22;69540;42.136;24.742;2023-05-17T09:06:51;23.80;46.50
80230;DHT22;69540;42.136;24.742;2023-05-17T09:09:17;23.80;46.40
80230;DHT22;69540;42.136;24.742;2023-05-17T09:11:43;23.80;46.60
80230;DHT22;69540;42.136;24.742;2023-05-17T09:14:09;23.80;46.50
80230;DHT22;69540;42.136;24.742;2023-05-17T09:16:36;23.70;46.40
80230;DHT22;69540;42.136;24.742;2023-05-17T09:19:03;23.80;46.50
80230;DHT22;69540;42.136;24.742;2023-05-17T09:21:29;23.80;46.60
80230;DHT22;69540;42.136;24.742;2023-05-17T09:23:56;23.80;46.40
80230;DHT22;69540;42.136;24.742;2023-05-17T09:26:24;23.80;46.40
80230;DHT22;69540;42.136;24.742;2023-05-17T09:28:49;23.80;46.40
80230;DHT22;69540;42.136;24.742;2023-05-17T09:31:17;23.80;46.50
80230;DHT22;69540;42.136;24.742;2023-05-17T09:33:50;23.80;46.40
80230;DHT22;69540;42.136;24.742;2023-05-17T09:36:21;23.80;46.40
80230;DHT22;69540;42.136;24.742;2023-05-17T09:38:58;23.80;46.40
80230;DHT22;69540;42.136;24.742;2023-05-17T09:41:30;23.80;46.30
80230;DHT22;69540;42.136;24.742;2023-05-17T09:44:00;23.80;46.30
80230;DHT22;69540;42.136;24.742;2023-05-17T09:46:32;23.80;46.20
80230;DHT22;69540;42.136;24.742;2023-05-17T09:49:03;23.80;46.20
80230;DHT22;69540;42.136;24.742;2023-05-17T09:51:36;23.80;46.20
80230;DHT22;69540;42.136;24.742;2023-05-17T09:54:02;23.80;46.10
80230;DHT22;69540;42.136;24.742;2023-05-17T09:56:28;23.80;46.10
80230;DHT22;69540;42.136;24.742;2023-05-17T09:58:55;23.70;47.20
80230;DHT22;69540;42.136;24.742;2023-05-17T10:01:21;23.80;46.20
80230;DHT22;69540;42.136;24.742;2023-05-17T10:03:48;23.80;46.10
80230;DHT22;69540;42.136;24.742;2023-05-17T10:06:18;23.80;46.00
80230;DHT22;69540;42.136;24.742;2023-05-17T10:08:51;23.80;45.80
80230;DHT22;69540;42.136;24.742;2023-05-17T10:11:26;23.80;45.80
80230;DHT22;69540;42.136;24.742;2023-05-17T10:14:13;23.80;45.70
80230;DHT22;69540;42.136;24.742;2023-05-17T10:16:43;23.80;46.70
80230;DHT22;69540;42.136;24.742;2023-05-17T10:19:10;23.80;45.60
80230;DHT22;69540;42.136;24.742;2023-05-17T10:21:36;23.80;45.70
80230;DHT22;69540;42.136;24.742;2023-05-17T10:24:05;23.80;45.70
80230;DHT22;69540;42.136;24.742;2023-05-17T10:26:31;23.80;45.70
80230;DHT22;69540;42.136;24.742;2023-05-17T10:28:59;23.70;45.80
80230;DHT22;69540;42.136;24.742;2023-05-17T10:31:28;23.80;45.90
80230;DHT22;69540;42.136;24.742;2023-05-17T10:33:55;23.70;45.90
80230;DHT22;69540;42.136;24.742;2023-05-17T10:36:23;23.80;46.10
80230;DHT22;69540;42.136;24.742;2023-05-17T10:38:50;23.70;46.10
80230;DHT22;69540;42.136;24.742;2023-05-17T10:41:21;23.80;46.10
80230;DHT22;69540;42.136;24.742;2023-05-17T10:43:49;23.80;47.20
80230;DHT22;69540;42.136;24.742;2023-05-17T10:46:16;23.80;46.40
80230;DHT22;69540;42.136;24.742;2023-05-17T10:48:44;23.80;46.60
80230;DHT22;69540;42.136;24.742;2023-05-17T10:51:12;23.80;46.60
80230;DHT22;69540;42.136;24.742;2023-05-17T10:54:03;23.70;46.50
80230;DHT22;69540;42.136;24.742;2023-05-17T10:56:32;23.80;46.70
80230;DHT22;69540;42.136;24.742;2023-05-17T10:59:14;23.80;46.70
80230;DHT22;69540;42.136;24.742;2023-05-17T11:01:59;23.70;46.70
80230;DHT22;69540;42.136;24.742;2023-05-17T11:15:04;23.70;46.80
80230;DHT22;69540;42.136;24.742;2023-05-17T11:25:15;23.70;47.10
80230;DHT22;69540;42.136;24.742;2023-05-17T11:27:49;23.70;47.10
80230;DHT22;69540;42.136;24.742;2023-05-17T11:30:15;23.70;48.10
80230;DHT22;69540;42.136;24.742;2023-05-17T11:33:11;23.70;47.10
80230;DHT22;69540;42.136;24.742;2023-05-17T11:35:37;23.80;47.10
80230;DHT22;69540;42.136;24.742;2023-05-17T11:38:22;23.70;47.10
80230;DHT22;69540;42.136;24.742;2023-05-17T11:40:53;23.70;47.20
80230;DHT22;69540;42.136;24.742;2023-05-17T11:43:23;23.70;47.20
80230;DHT22;69540;42.136;24.742;2023-05-17T11:45:54;23.70;47.20
80230;DHT22;69540;42.136;24.742;2023-05-17T11:48:26;23.70;47.20
80230;DHT22;69540;42.136;24.742;2023-05-17T11:50:53;23.70;47.10
80230;DHT22;69540;42.136;24.742;2023-05-17T11:53:19;23.70;47.20
80230;DHT22;69540;42.136;24.742;2023-05-17T11:55:50;23.70;47.20
80230;DHT22;69540;42.136;24.742;2023-05-17T11:58:19;23.70;47.20
80230;DHT22;69540;42.136;24.742;2023-05-17T12:00:50;23.70;48.50
80230;DHT22;69540;42.136;24.742;2023-05-17T12:03:24;23.70;47.60
80230;DHT22;69540;42.136;24.742;2023-05-17T12:06:04;23.70;47.60
80230;DHT22;69540;42.136;24.742;2023-05-17T12:08:32;23.70;47.70
80230;DHT22;69540;42.136;24.742;2023-05-17T12:11:01;23.70;47.70
80230;DHT22;69540;42.136;24.742;2023-05-17T12:13:29;23.70;47.70
80230;DHT22;69540;42.136;24.742;2023-05-17T12:16:19;23.70;47.60
80230;DHT22;69540;42.136;24.742;2023-05-17T12:18:50;23.70;47.60
80230;DHT22;69540;42.136;24.742;2023-05-17T12:21:16;23.70;47.60
80230;DHT22;69540;42.136;24.742;2023-05-17T12:23:46;23.70;47.80
80230;DHT22;69540;42.136;24.742;2023-05-17T12:26:22;23.70;47.80
80230;DHT22;69540;42.136;24.742;2023-05-17T12:28:58;23.70;47.70
80230;DHT22;69540;42.136;24.742;2023-05-17T12:31:37;23.70;47.60
80230;DHT22;69540;42.136;24.742;2023-05-17T12:34:07;23.70;47.50
80230;DHT22;69540;42.136;24.742;2023-05-17T12:36:34;23.70;47.50
80230;DHT22;69540;42.136;24.742;2023-05-17T12:39:02;23.70;47.40
80230;DHT22;69540;42.136;24.742;2023-05-17T12:41:31;23.70;47.40
80230;DHT22;69540;42.136;24.742;2023-05-17T12:43:56;23.70;47.50
80230;DHT22;69540;42.136;24.742;2023-05-17T12:46:23;23.70;47.40
80230;DHT22;69540;42.136;24.742;2023-05-17T12:48:50;23.70;47.40
80230;DHT22;69540;42.136;24.742;2023-05-17T12:51:17;23.70;47.40
80230;DHT22;69540;42.136;24.742;2023-05-17T12:53:53;23.70;47.30
80230;DHT22;69540;42.136;24.742;2023-05-17T12:56:29;23.70;47.20
80230;DHT22;69540;42.136;24.742;2023-05-17T13:01:51;23.70;47.20
80230;DHT22;69540;42.136;24.742;2023-05-17T13:04:19;23.70;47.20
80230;DHT22;69540;42.136;24.742;2023-05-17T13:06:53;23.70;47.40
80230;DHT22;69540;42.136;24.742;2023-05-17T13:09:20;23.70;47.20
80230;DHT22;69540;42.136;24.742;2023-05-17T13:12:06;23.70;47.30
80230;DHT22;69540;42.136;24.742;2023-05-17T13:14:39;23.70;47.20
80230;DHT22;69540;42.136;24.742;2023-05-17T13:17:10;23.70;47.20
80230;DHT22;69540;42.136;24.742;2023-05-17T13:19:37;23.70;47.20
80230;DHT22;69540;42.136;24.742;2023-05-17T13:22:04;23.70;47.20
80230;DHT22;69540;42.136;24.742;2023-05-17T13:24:34;23.70;47.20
80230;DHT22;69540;42.136;24.742;2023-05-17T13:27:01;23.70;47.20
80230;DHT22;69540;42.136;24.742;2023-05-17T13:29:30;23.70;47.20
80230;DHT22;69540;42.136;24.742;2023-05-17T13:31:56;23.70;47.20
80230;DHT22;69540;42.136;24.742;2023-05-17T13:34:22;23.70;47.20
80230;DHT22;69540;42.136;24.742;2023-05-17T13:36:48;23.70;47.10
80230;DHT22;69540;42.136;24.742;2023-05-17T13:39:15;23.70;47.10
80230;DHT22;69540;42.136;24.742;2023-05-17T13:41:41;23.70;47.00
80230;DHT22;69540;42.136;24.742;2023-05-17T13:44:08;23.80;47.10
80230;DHT22;69540;42.136;24.742;2023-05-17T13:46:34;23.80;47.00
80230;DHT22;69540;42.136;24.742;2023-05-17T13:48:59;23.70;47.00
80230;DHT22;69540;42.136;24.742;2023-05-17T13:51:27;23.80;47.10
80230;DHT22;69540;42.136;24.742;2023-05-17T13:53:53;23.70;47.10
80230;DHT22;69540;42.136;24.742;2023-05-17T13:56:19;23.70;47.10
80230;DHT22;69540;42.136;24.742;2023-05-17T13:58:44;23.70;46.90
80230;DHT22;69540;42.136;24.742;2023-05-17T14:01:10;23.80;47.00
80230;DHT22;69540;42.136;24.742;2023-05-17T14:03:36;23.80;47.00
80230;DHT22;69540;42.136;24.742;2023-05-17T14:06:03;23.80;47.00
80230;DHT22;69540;42.136;24.742;2023-05-17T14:08:29;23.70;46.90
80230;DHT22;69540;42.136;24.742;2023-05-17T14:10:55;23.80;46.90
80230;DHT22;69540;42.136;24.742;2023-05-17T14:13:20;23.80;47.00
80230;DHT22;69540;42.136;24.742;2023-05-17T14:15:46;23.80;46.90
80230;DHT22;69540;42.136;24.742;2023-05-17T14:18:12;23.70;46.90
80230;DHT22;69540;42.136;24.742;2023-05-17T14:20:38;23.70;46.80
80230;DHT22;69540;42.136;24.742;2023-05-17T14:23:04;23.80;46.90
80230;DHT22;69540;42.136;24.742;2023-05-17T14:25:30;23.80;46.90
80230;DHT22;69540;42.136;24.742;2023-05-17T14:27:56;23.70;46.80
80230;DHT22;69540;42.136;24.742;2023-05-17T14:30:22;23.70;46.80
80230;DHT22;69540;42.136;24.742;2023-05-17T14:32:47;23.80;46.80
80230;DHT22;69540;42.136;24.742;2023-05-17T14:35:14;23.80;47.30
80230;DHT22;69540;42.136;24.742;2023-05-17T14:37:41;23.80;47.10
80230;DHT22;69540;42.136;24.742;2023-05-17T14:40:07;23.80;47.10
80230;DHT22;69540;42.136;24.742;2023-05-17T14:42:33;23.80;47.00
80230;DHT22;69540;42.136;24.742;2023-05-17T14:44:58;23.80;47.00
80230;DHT22;69540;42.136;24.742;2023-05-17T14:47:24;23.70;46.90
80230;DHT22;69540;42.136;24.742;2023-05-17T14:49:50;23.70;46.90
80230;DHT22;69540;42.136;24.742;2023-05-17T14:52:16;23.70;46.90
80230;DHT22;69540;42.136;24.742;2023-05-17T14:54:42;23.80;47.00
80230;DHT22;69540;42.136;24.742;2023-05-17T14:57:07;23.70;47.00
80230;DHT22;69540;42.136;24.742;2023-05-17T14:59:34;23.80;47.00
80230;DHT22;69540;42.136;24.742;2023-05-17T15:02:00;23.70;46.90
80230;DHT22;69540;42.136;24.742;2023-05-17T15:04:26;23.70;46.90
80230;DHT22;69540;42.136;24.742;2023-05-17T15:06:51;23.70;47.00
80230;DHT22;69540;42.136;24.742;2023-05-17T15:09:17;23.80;47.00
80230;DHT22;69540;42.136;24.742;2023-05-17T15:11:44;23.80;46.80
80230;DHT22;69540;42.136;24.742;2023-05-17T15:14:11;23.70;46.80
80230;DHT22;69540;42.136;24.742;2023-05-17T15:16:37;23.70;46.70
80230;DHT22;69540;42.136;24.742;2023-05-17T15:19:03;23.80;46.70
80230;DHT22;69540;42.136;24.742;2023-05-17T15:21:28;23.70;46.80
80230;DHT22;69540;42.136;24.742;2023-05-17T15:23:54;23.80;46.90
80230;DHT22;69540;42.136;24.742;2023-05-17T15:26:20;23.80;46.90
80230;DHT22;69540;42.136;24.742;2023-05-17T15:28:47;23.80;46.80
80230;DHT22;69540;42.136;24.742;2023-05-17T15:31:15;23.80;46.80
80230;DHT22;69540;42.136;24.742;2023-05-17T15:33:41;23.70;46.90
80230;DHT22;69540;42.136;24.742;2023-05-17T15:36:11;23.70;46.80
80230;DHT22;69540;42.136;24.742;2023-05-17T15:38:37;23.70;46.80
80230;DHT22;69540;42.136;24.742;2023-05-17T15:41:05;23.70;46.70
80230;DHT22;69540;42.136;24.742;2023-05-17T15:43:33;23.70;46.70
80230;DHT22;69540;42.136;24.742;2023-05-17T15:45:59;23.70;46.60